Time;durP1;ratioP1;P1;durP2;ratioP2;P2;SDS_P1;SDS_P2;PMS_P1;PMS_P2;Temp;Humidity;BMP_temperature;BMP_pressure;BME280_temperature;BME280_humidity;BME280_pressure;Samples;Min_cycle;Max_cycle;Signal;HPM_P1;HPM_P2
2021/08/28 00:00:31;;;;;;;10.32;2.80;;;15.80;99.90;;;;;;5009156;28;20030;-73
2021/08/28 00:02:56;;;;;;;11.73;2.63;;;15.70;99.90;;;;;;5025554;28;20013;-73
2021/08/28 00:05:22;;;;;;;12.15;2.40;;;15.80;99.90;;;;;;5033442;28;20031;-72
2021/08/28 00:07:48;;;;;;;16.73;3.80;;;15.80;99.90;;;;;;5021427;28;20030;-72
2021/08/28 00:10:13;;;;;;;13.27;3.40;;;15.80;99.90;;;;;;5034874;28;20031;-77
2021/08/28 00:12:39;;;;;;;8.93;2.78;;;15.80;99.90;;;;;;5035418;28;20037;-72
2021/08/28 00:15:08;;;;;;;11.30;4.03;;;15.80;99.90;;;;;;5035437;28;20041;-73
2021/08/28 00:17:35;;;;;;;7.90;2.90;;;15.90;99.90;;;;;;5029962;28;20065;-73
2021/08/28 00:20:06;;;;;;;8.20;3.13;;;15.90;99.90;;;;;;5003477;28;20038;-72
2021/08/28 00:22:32;;;;;;;8.57;2.60;;;15.90;99.90;;;;;;5012779;28;20491;-73
2021/08/28 00:24:58;;;;;;;12.55;2.67;;;15.90;99.90;;;;;;5001888;28;20029;-73
2021/08/28 00:27:23;;;;;;;8.48;2.90;;;15.90;99.90;;;;;;5004569;28;20022;-72
2021/08/28 00:29:49;;;;;;;6.53;2.78;;;15.90;99.90;;;;;;4996779;28;20065;-73
2021/08/28 00:32:15;;;;;;;13.07;2.88;;;15.90;99.90;;;;;;5002512;28;20044;-73
2021/08/28 00:34:42;;;;;;;8.82;2.65;;;16.00;99.90;;;;;;4999507;28;20035;-73
2021/08/28 00:37:07;;;;;;;9.50;2.97;;;15.90;99.90;;;;;;5002689;28;20153;-73
2021/08/28 00:39:33;;;;;;;12.23;3.53;;;15.90;99.90;;;;;;4998889;28;20096;-73
2021/08/28 00:41:59;;;;;;;16.27;3.88;;;15.90;99.90;;;;;;4997748;28;20035;-73
2021/08/28 00:44:28;;;;;;;9.82;2.38;;;16.00;99.90;;;;;;5009329;28;20113;-73
2021/08/28 00:46:54;;;;;;;9.23;3.10;;;16.00;99.90;;;;;;5010196;28;20105;-73
2021/08/28 00:49:20;;;;;;;18.48;3.25;;;15.90;99.90;;;;;;4993277;28;20030;-73
2021/08/28 00:51:46;;;;;;;14.10;2.88;;;15.90;99.90;;;;;;4997143;28;20553;-74
2021/08/28 00:54:11;;;;;;;13.57;3.53;;;15.90;99.90;;;;;;5003183;28;20495;-74
2021/08/28 00:56:38;;;;;;;6.55;2.90;;;15.90;99.90;;;;;;4993985;28;20034;-74
2021/08/28 00:59:04;;;;;;;15.18;3.15;;;15.80;99.90;;;;;;4994675;28;20226;-74
2021/08/28 01:01:35;;;;;;;10.88;2.72;;;15.80;99.90;;;;;;5004387;28;20022;-74
2021/08/28 01:04:02;;;;;;;13.68;3.15;;;15.80;99.90;;;;;;5013609;28;20473;-74
2021/08/28 01:07:08;;;;;;;14.18;2.92;;;15.80;99.90;;;;;;5006390;28;20509;-74
2021/08/28 01:09:35;;;;;;;14.13;3.55;;;15.80;99.90;;;;;;4994511;28;20026;-74
2021/08/28 01:12:11;;;;;;;10.68;2.80;;;15.80;99.90;;;;;;4998913;28;20041;-73
2021/08/28 01:14:44;;;;;;;11.30;2.92;;;15.80;99.90;;;;;;4993942;28;20052;-74
2021/08/28 01:17:12;;;;;;;10.50;4.40;;;15.80;99.90;;;;;;4998571;28;20430;-73
2021/08/28 01:19:55;;;;;;;8.93;3.30;;;15.80;99.90;;;;;;5002168;28;20018;-73
2021/08/28 01:22:20;;;;;;;11.00;3.05;;;15.80;99.90;;;;;;5007889;28;20026;-73
2021/08/28 01:24:47;;;;;;;13.88;2.95;;;15.80;99.90;;;;;;5005086;28;20049;-73
2021/08/28 01:27:22;;;;;;;10.05;3.33;;;15.80;99.90;;;;;;4996562;28;20491;-72
2021/08/28 01:29:49;;;;;;;17.55;3.55;;;15.80;99.90;;;;;;5018455;28;20077;-73
2021/08/28 01:32:17;;;;;;;16.77;3.97;;;15.70;99.90;;;;;;5010028;28;20124;-73
2021/08/28 01:34:43;;;;;;;;;;;15.80;99.90;;;;;;5004865;28;20320;-73
2021/08/28 01:37:11;;;;;;;15.73;3.10;;;15.80;99.90;;;;;;5005114;28;19909;-73
2021/08/28 01:39:37;;;;;;;14.68;3.70;;;15.80;99.90;;;;;;5012017;28;20026;-73
2021/08/28 01:42:04;;;;;;;17.95;3.10;;;15.80;99.90;;;;;;4993800;28;20034;-73
2021/08/28 01:44:32;;;;;;;10.02;3.60;;;15.80;99.90;;;;;;5001067;28;20037;-73
2021/08/28 01:46:57;;;;;;;12.95;3.58;;;15.80;99.90;;;;;;5002570;28;20414;-74
2021/08/28 01:49:24;;;;;;;12.85;3.95;;;15.90;99.90;;;;;;4998290;28;20026;-72
2021/08/28 01:51:50;;;;;;;16.55;4.40;;;15.90;99.90;;;;;;4998177;28;20026;-72
2021/08/28 01:54:16;;;;;;;15.70;2.88;;;15.90;99.90;;;;;;4999858;28;20065;-72
2021/08/28 01:56:42;;;;;;;10.10;3.05;;;15.80;99.90;;;;;;5012546;28;20058;-72
2021/08/28 01:59:08;;;;;;;13.05;3.63;;;15.90;99.90;;;;;;4998494;28;20501;-72
2021/08/28 02:01:34;;;;;;;5.78;2.80;;;15.90;99.90;;;;;;4997190;28;20034;-72
2021/08/28 02:04:00;;;;;;;15.38;3.22;;;15.90;99.90;;;;;;4997410;28;20026;-72
2021/08/28 02:06:35;;;;;;;9.18;3.10;;;15.90;99.90;;;;;;5012123;28;20030;-72
2021/08/28 02:09:24;;;;;;;19.27;3.13;;;15.90;99.90;;;;;;4995978;28;20061;-72
2021/08/28 02:12:03;;;;;;;10.45;4.00;;;15.90;99.90;;;;;;4999797;28;20116;-72
2021/08/28 02:14:51;;;;;;;12.82;3.50;;;15.90;99.90;;;;;;5013697;28;20038;-72
2021/08/28 02:17:18;;;;;;;7.93;3.00;;;15.90;99.90;;;;;;4997200;28;20037;-72
2021/08/28 02:19:44;;;;;;;16.10;4.57;;;15.90;99.90;;;;;;4996891;28;20046;-73
2021/08/28 02:22:16;;;;;;;14.70;3.55;;;15.90;99.90;;;;;;5001754;28;20022;-73
2021/08/28 02:24:46;;;;;;;19.67;4.30;;;15.80;99.90;;;;;;5006251;28;20084;-73
2021/08/28 02:27:24;;;;;;;21.83;3.67;;;15.70;99.90;;;;;;5006974;28;20037;-73
2021/08/28 02:30:14;;;;;;;11.40;4.10;;;15.70;99.90;;;;;;4997029;28;20026;-73
2021/08/28 02:32:40;;;;;;;15.75;3.30;;;15.80;99.90;;;;;;5008087;28;20561;-72
2021/08/28 02:35:10;;;;;;;12.82;4.43;;;15.80;99.90;;;;;;5013274;28;20105;-72
2021/08/28 02:37:38;;;;;;;15.98;3.53;;;15.70;99.90;;;;;;5007669;28;20026;-72
2021/08/28 02:40:10;;;;;;;15.13;3.30;;;15.70;99.90;;;;;;5016619;28;20057;-73
2021/08/28 02:42:39;;;;;;;14.60;4.35;;;15.80;99.90;;;;;;5003281;28;20132;-72
2021/08/28 02:45:06;;;;;;;10.45;3.15;;;15.80;99.90;;;;;;5010835;28;20363;-72
2021/08/28 02:47:32;;;;;;;10.65;3.95;;;15.60;99.90;;;;;;4997539;28;20058;-72
2021/08/28 02:50:00;;;;;;;5.32;3.28;;;15.60;99.90;;;;;;4997760;28;20038;-73
2021/08/28 02:52:28;;;;;;;15.43;3.47;;;15.70;99.90;;;;;;4996874;28;20026;-72
2021/08/28 02:54:58;;;;;;;8.50;3.28;;;15.60;99.90;;;;;;5013885;28;20022;-72
2021/08/28 02:57:26;;;;;;;8.65;3.33;;;15.60;99.90;;;;;;4999411;28;20100;-72
2021/08/28 02:59:53;;;;;;;9.20;3.50;;;15.50;99.90;;;;;;4997032;28;20030;-72
2021/08/28 03:02:20;;;;;;;14.02;3.83;;;15.60;99.90;;;;;;4998948;28;20114;-73
2021/08/28 03:04:47;;;;;;;12.48;3.35;;;15.60;99.90;;;;;;5008983;28;20030;-72
2021/08/28 03:07:13;;;;;;;9.80;3.38;;;15.60;99.90;;;;;;5012697;28;20083;-73
2021/08/28 03:09:40;;;;;;;10.40;3.50;;;15.60;99.90;;;;;;5009592;28;20026;-73
2021/08/28 03:12:06;;;;;;;9.40;3.03;;;15.60;99.90;;;;;;4996855;28;20035;-74
2021/08/28 03:14:32;;;;;;;8.95;3.35;;;15.60;99.90;;;;;;4999470;28;20034;-71
2021/08/28 03:16:58;;;;;;;18.10;3.65;;;15.70;99.90;;;;;;4998857;28;20019;-71
2021/08/28 03:19:27;;;;;;;6.28;3.03;;;15.70;99.90;;;;;;5002061;28;20106;-73
2021/08/28 03:21:54;;;;;;;11.35;3.53;;;15.70;99.90;;;;;;5007708;28;20018;-74
2021/08/28 03:24:24;;;;;;;8.95;3.13;;;15.70;99.90;;;;;;5004770;28;20030;-74
2021/08/28 03:26:51;;;;;;;16.27;3.75;;;15.80;99.90;;;;;;5001972;28;20423;-71
2021/08/28 03:29:20;;;;;;;7.20;2.88;;;15.80;99.90;;;;;;5019785;28;20033;-71
2021/08/28 03:31:46;;;;;;;17.92;3.53;;;15.80;99.90;;;;;;5015230;28;20097;-72
2021/08/28 03:34:12;;;;;;;12.43;4.15;;;15.80;99.90;;;;;;5025501;28;20026;-72
2021/08/28 03:36:38;;;;;;;8.95;3.55;;;15.80;99.90;;;;;;5028334;28;20045;-72
2021/08/28 03:39:06;;;;;;;10.55;3.88;;;15.80;99.90;;;;;;5011481;28;20440;-71
2021/08/28 03:41:31;;;;;;;19.05;3.90;;;15.80;99.90;;;;;;5012935;28;20101;-72
2021/08/28 03:43:57;;;;;;;14.20;3.88;;;15.80;99.90;;;;;;5013972;28;20035;-72
2021/08/28 03:46:24;;;;;;;9.73;4.07;;;15.80;99.90;;;;;;5014944;28;20034;-72
2021/08/28 03:48:49;;;;;;;17.00;5.55;;;15.80;99.90;;;;;;5017864;28;20035;-72
2021/08/28 03:51:15;;;;;;;7.65;3.20;;;15.80;99.90;;;;;;5016521;28;20034;-70
2021/08/28 03:53:40;;;;;;;18.95;4.18;;;15.90;99.90;;;;;;5016804;28;20042;-72
2021/08/28 03:56:06;;;;;;;8.95;3.47;;;15.80;99.90;;;;;;5009683;28;20134;-72
2021/08/28 03:58:33;;;;;;;18.33;4.00;;;15.80;99.90;;;;;;4999757;28;20026;-72
2021/08/28 04:00:58;;;;;;;15.90;3.95;;;15.80;99.90;;;;;;5000476;28;20109;-73
2021/08/28 04:03:24;;;;;;;12.50;3.78;;;15.80;99.90;;;;;;4997410;28;20500;-73
2021/08/28 04:05:50;;;;;;;9.13;4.00;;;15.70;99.90;;;;;;4998155;28;20093;-72
2021/08/28 04:08:15;;;;;;;14.48;3.42;;;15.80;99.90;;;;;;4996768;28;20105;-72
2021/08/28 04:10:41;;;;;;;13.73;3.60;;;15.70;99.90;;;;;;4997566;28;20455;-73
2021/08/28 04:13:06;;;;;;;15.93;3.53;;;15.70;99.90;;;;;;4997637;28;20407;-73
2021/08/28 04:15:32;;;;;;;8.35;3.53;;;15.70;99.90;;;;;;5014040;28;20104;-73
2021/08/28 04:17:57;;;;;;;8.55;4.07;;;15.70;99.90;;;;;;5001718;28;20039;-73
2021/08/28 04:20:23;;;;;;;11.95;3.50;;;15.70;99.90;;;;;;5005306;28;20108;-73
2021/08/28 04:22:49;;;;;;;9.57;3.30;;;15.70;99.90;;;;;;5013168;28;20018;-73
2021/08/28 04:25:14;;;;;;;5.72;3.20;;;15.70;99.90;;;;;;4995069;28;20037;-73
2021/08/28 04:27:40;;;;;;;5.30;3.05;;;15.60;99.90;;;;;;5002291;28;20442;-73
2021/08/28 04:30:07;;;;;;;12.35;3.92;;;15.70;99.90;;;;;;4996643;28;20057;-73
2021/08/28 04:32:33;;;;;;;6.00;3.38;;;15.70;99.90;;;;;;4995715;28;20026;-73
2021/08/28 04:34:59;;;;;;;12.70;3.20;;;15.60;99.90;;;;;;5007533;28;20056;-73
2021/08/28 04:37:25;;;;;;;8.82;4.03;;;15.60;99.90;;;;;;5003751;28;20026;-73
2021/08/28 04:39:51;;;;;;;7.45;3.13;;;15.60;99.90;;;;;;4997328;28;20466;-73
2021/08/28 04:42:17;;;;;;;6.78;3.60;;;15.60;99.90;;;;;;5012556;28;20030;-74
2021/08/28 04:44:43;;;;;;;7.30;3.28;;;15.70;99.90;;;;;;4994559;28;20027;-74
2021/08/28 04:47:08;;;;;;;10.32;3.85;;;15.70;99.90;;;;;;5006954;28;20105;-73
2021/08/28 04:49:34;;;;;;;11.13;3.20;;;15.80;99.90;;;;;;5006848;28;20033;-73
2021/08/28 04:52:00;;;;;;;6.20;3.72;;;15.70;99.90;;;;;;5007921;28;20030;-73
2021/08/28 04:54:26;;;;;;;8.73;3.42;;;15.70;99.90;;;;;;4994494;28;20031;-73
2021/08/28 04:56:52;;;;;;;11.25;3.35;;;15.80;99.90;;;;;;5002483;28;20383;-74
2021/08/28 04:59:18;;;;;;;8.07;3.40;;;15.70;99.90;;;;;;5012253;28;20109;-74
2021/08/28 09:17:19;;;;;;;4.47;3.25;;;17.90;99.90;;;;;;5089633;27;20401;-75
2021/08/28 09:19:46;;;;;;;12.23;4.22;;;18.50;99.90;;;;;;5088101;28;20504;-74
2021/08/28 09:22:28;;;;;;;6.28;3.30;;;18.60;99.90;;;;;;5090037;28;20431;-74
2021/08/28 09:25:01;;;;;;;6.78;3.53;;;18.70;99.90;;;;;;5088996;28;20032;-74
2021/08/28 09:27:50;;;;;;;8.07;3.60;;;18.50;99.90;;;;;;5089029;28;20020;-73
2021/08/28 09:30:27;;;;;;;10.57;3.22;;;18.40;99.90;;;;;;5087489;28;20434;-72
2021/08/28 09:32:54;;;;;;;8.23;3.28;;;18.50;99.90;;;;;;5087501;28;20016;-72
2021/08/28 09:35:22;;;;;;;10.25;3.65;;;18.60;99.90;;;;;;5088996;28;20024;-71
2021/08/28 09:38:01;;;;;;;10.00;3.17;;;18.50;99.90;;;;;;5088877;28;20016;-72
2021/08/28 09:40:38;;;;;;;5.82;3.55;;;18.30;99.90;;;;;;5087329;28;20028;-73
2021/08/28 09:43:12;;;;;;;9.30;2.90;;;18.30;99.90;;;;;;5088980;28;20024;-72
2021/08/28 09:45:38;;;;;;;9.45;3.20;;;18.30;99.90;;;;;;5088435;28;20036;-73
2021/08/28 09:48:07;;;;;;;9.68;3.30;;;18.40;99.90;;;;;;5087155;28;20147;-71
2021/08/28 09:50:39;;;;;;;5.95;2.97;;;18.60;99.90;;;;;;5068426;28;20430;-70
2021/08/28 09:53:13;;;;;;;7.53;3.00;;;18.80;99.90;;;;;;5068799;28;20036;-71
2021/08/28 09:55:41;;;;;;;5.70;2.90;;;18.80;99.90;;;;;;5076220;28;20034;-71
2021/08/28 09:58:09;;;;;;;2.90;2.60;;;18.60;99.90;;;;;;5092616;28;20044;-71
2021/08/28 10:00:40;;;;;;;;;;;18.40;99.90;;;;;;5092570;28;20093;-71
2021/08/28 10:03:06;;;;;;;8.57;3.88;;;18.20;99.90;;;;;;5082682;28;19928;-71
2021/08/28 10:05:34;;;;;;;9.10;3.45;;;18.10;99.90;;;;;;5070704;28;20025;-72
2021/08/28 10:08:03;;;;;;;9.77;2.90;;;18.00;99.90;;;;;;5073145;28;20433;-72
2021/08/28 10:10:30;;;;;;;4.90;3.20;;;17.90;99.90;;;;;;5074481;28;20024;-72
2021/08/28 10:12:57;;;;;;;3.60;2.72;;;18.00;99.90;;;;;;5072015;28;20163;-72
2021/08/28 10:15:23;;;;;;;4.40;2.55;;;18.20;99.90;;;;;;5073650;28;20048;-73
2021/08/28 10:17:49;;;;;;;9.85;2.58;;;18.50;99.90;;;;;;5060673;28;20021;-73
2021/08/28 10:20:18;;;;;;;6.22;2.80;;;18.80;99.90;;;;;;5058007;28;20382;-73
2021/08/28 10:22:44;;;;;;;6.03;2.33;;;18.80;99.90;;;;;;5055181;28;20025;-72
2021/08/28 10:25:12;;;;;;;5.65;2.30;;;18.80;99.90;;;;;;5053127;28;20052;-72
2021/08/28 10:27:40;;;;;;;5.63;2.63;;;18.80;99.90;;;;;;5054217;28;20025;-71
2021/08/28 10:30:08;;;;;;;6.18;2.17;;;18.80;99.90;;;;;;5053006;28;20021;-72
2021/08/28 10:32:34;;;;;;;7.57;3.70;;;18.90;99.90;;;;;;5051610;28;20025;-71
2021/08/28 10:35:00;;;;;;;19.00;2.65;;;18.90;99.90;;;;;;5051891;28;20136;-71
2021/08/28 10:37:26;;;;;;;5.78;2.67;;;19.00;99.90;;;;;;5051172;28;20025;-71
2021/08/28 10:39:52;;;;;;;5.07;2.38;;;19.10;99.90;;;;;;5051096;28;20029;-72
2021/08/28 10:42:19;;;;;;;5.85;1.92;;;19.30;99.90;;;;;;5053744;28;20033;-71
2021/08/28 10:44:49;;;;;;;6.93;2.63;;;19.70;99.90;;;;;;5051873;28;20055;-71
2021/08/28 10:47:26;;;;;;;3.38;2.40;;;19.80;99.90;;;;;;5052723;28;20461;-72
2021/08/28 10:49:52;;;;;;;3.15;2.05;;;19.60;99.90;;;;;;5051789;28;20033;-72
2021/08/28 10:52:24;;;;;;;5.22;2.50;;;19.60;99.90;;;;;;5049787;28;20507;-72
2021/08/28 10:54:57;;;;;;;4.47;2.30;;;19.60;99.90;;;;;;5052928;28;20032;-72
2021/08/28 10:57:28;;;;;;;4.13;2.50;;;19.50;99.90;;;;;;5050239;28;20070;-72
2021/08/28 11:00:12;;;;;;;8.13;2.50;;;19.60;99.90;;;;;;5049606;28;20124;-72
2021/08/28 11:02:54;;;;;;;5.35;2.20;;;19.60;99.90;;;;;;5045764;28;20032;-72
2021/08/28 11:05:24;;;;;;;7.50;2.53;;;19.40;99.90;;;;;;5047901;28;20036;-72
2021/08/28 11:07:51;;;;;;;5.93;2.00;;;19.30;99.90;;;;;;5045181;28;20029;-72
2021/08/28 11:10:19;;;;;;;5.03;2.17;;;19.10;99.90;;;;;;5052049;28;20021;-71
2021/08/28 11:13:00;;;;;;;5.65;2.70;;;19.00;99.90;;;;;;5053275;28;20401;-71
2021/08/28 11:15:29;;;;;;;3.95;2.15;;;19.10;99.90;;;;;;5051768;28;20068;-70
2021/08/28 11:17:55;;;;;;;7.78;2.30;;;19.40;99.90;;;;;;5053123;28;20515;-71
2021/08/28 11:20:27;;;;;;;2.17;1.85;;;19.60;99.90;;;;;;5052681;28;20057;-71
2021/08/28 11:22:53;;;;;;;5.13;2.20;;;19.60;99.90;;;;;;5051475;28;20063;-71
2021/08/28 11:25:25;;;;;;;5.37;1.87;;;19.60;99.90;;;;;;5051598;28;20086;-71
2021/08/28 11:27:55;;;;;;;3.72;2.38;;;19.70;99.90;;;;;;5051999;28;20036;-71
2021/08/28 11:30:39;;;;;;;3.38;2.03;;;19.60;99.90;;;;;;5050982;28;20021;-71
2021/08/28 11:33:10;;;;;;;10.18;2.78;;;19.60;99.90;;;;;;5053130;28;20459;-71
2021/08/28 11:35:39;;;;;;;4.10;1.85;;;19.50;99.90;;;;;;5050936;28;20067;-72
2021/08/28 11:38:07;;;;;;;3.45;1.75;;;19.50;99.90;;;;;;5051453;28;20485;-71
2021/08/28 11:40:35;;;;;;;7.15;2.78;;;19.60;99.90;;;;;;5052676;28;20162;-70
2021/08/28 11:43:05;;;;;;;4.30;2.45;;;19.50;99.90;;;;;;5052355;28;20025;-70
2021/08/28 11:45:34;;;;;;;3.90;2.70;;;19.50;99.90;;;;;;5052406;28;20477;-70
2021/08/28 11:48:05;;;;;;;4.78;2.20;;;19.30;99.90;;;;;;5033970;28;20026;-70
2021/08/28 11:50:32;;;;;;;6.70;2.22;;;19.10;99.90;;;;;;5052737;28;20036;-70
2021/08/28 11:53:02;;;;;;;8.98;2.75;;;19.00;99.90;;;;;;5049683;28;20025;-70
2021/08/28 11:55:34;;;;;;;6.25;2.30;;;19.10;99.90;;;;;;5049664;28;20103;-71
2021/08/28 11:58:12;;;;;;;12.82;3.38;;;19.10;99.90;;;;;;5050179;28;20366;-73
2021/08/28 12:00:38;;;;;;;5.50;2.17;;;19.10;99.90;;;;;;5043283;28;20036;-71
2021/08/28 12:03:06;;;;;;;5.82;1.80;;;19.20;99.90;;;;;;5047483;28;20029;-70
2021/08/28 12:05:32;;;;;;;7.22;2.20;;;19.20;99.90;;;;;;5051104;28;20447;-70
2021/08/28 12:07:59;;;;;;;4.70;1.98;;;19.50;99.90;;;;;;5048465;28;20461;-70
2021/08/28 12:10:25;;;;;;;4.63;1.95;;;19.80;99.90;;;;;;5051207;28;20028;-71
2021/08/28 12:13:04;;;;;;;2.83;1.88;;;19.90;99.90;;;;;;5051841;28;20373;-70
2021/08/28 12:15:30;;;;;;;6.22;2.10;;;19.90;99.90;;;;;;5045642;28;20404;-71
2021/08/28 12:17:58;;;;;;;6.65;2.08;;;19.80;99.90;;;;;;5050468;28;20044;-70
2021/08/28 12:20:25;;;;;;;;;;;19.80;99.90;;;;;;5049794;28;20025;-71
2021/08/28 12:22:55;;;;;;;4.13;2.60;;;20.10;99.90;;;;;;5049938;28;19908;-70
2021/08/28 12:25:21;;;;;;;3.35;1.90;;;20.10;99.90;;;;;;5049591;28;20094;-70
2021/08/28 12:27:49;;;;;;;5.15;2.03;;;20.00;99.90;;;;;;5049390;28;20036;-71
2021/08/28 12:30:15;;;;;;;5.40;2.20;;;20.00;99.90;;;;;;5049648;28;20516;-70
2021/08/28 12:32:41;;;;;;;8.20;2.20;;;19.90;99.90;;;;;;5050308;28;20052;-71
2021/08/28 12:35:08;;;;;;;6.43;2.05;;;19.60;99.90;;;;;;5051964;28;20447;-71
2021/08/28 12:37:34;;;;;;;4.57;1.58;;;19.50;99.90;;;;;;5048823;28;20047;-71
2021/08/28 12:40:03;;;;;;;5.28;1.63;;;19.60;99.90;;;;;;5050210;28;20037;-70
2021/08/28 12:42:32;;;;;;;4.28;2.10;;;19.90;99.90;;;;;;5047390;28;20032;-71
2021/08/28 12:44:59;;;;;;;4.10;2.00;;;20.10;99.90;;;;;;5050958;28;20029;-70
2021/08/28 12:47:29;;;;;;;4.97;2.10;;;20.40;99.90;;;;;;5050346;28;20471;-70
2021/08/28 12:49:56;;;;;;;6.10;1.70;;;20.50;99.90;;;;;;5051759;28;20032;-70
2021/08/28 12:52:32;;;;;;;5.95;1.92;;;20.80;99.90;;;;;;5051723;28;20029;-70
2021/08/28 12:54:58;;;;;;;5.20;2.40;;;21.00;99.90;;;;;;5051486;28;20044;-70
2021/08/28 12:57:29;;;;;;;4.15;2.08;;;20.90;99.90;;;;;;5047882;28;20029;-69
2021/08/28 13:00:08;;;;;;;6.20;1.75;;;20.60;99.90;;;;;;5047477;28;20070;-70
2021/08/28 13:02:48;;;;;;;3.63;1.65;;;20.40;99.90;;;;;;5048572;28;20033;-68
2021/08/28 13:05:28;;;;;;;3.17;1.88;;;20.50;99.90;;;;;;5049711;28;20365;-69
2021/08/28 13:08:01;;;;;;;7.18;2.10;;;20.60;99.90;;;;;;5049609;28;20044;-70
2021/08/28 13:10:29;;;;;;;3.70;2.45;;;20.70;99.90;;;;;;5048188;28;20122;-71
2021/08/28 13:12:57;;;;;;;5.97;1.58;;;21.00;99.90;;;;;;5049911;28;20029;-71
2021/08/28 13:15:25;;;;;;;2.95;1.50;;;21.00;99.90;;;;;;5049973;28;20045;-70
2021/08/28 13:17:56;;;;;;;3.80;1.85;;;21.00;99.90;;;;;;5032456;28;20493;-70
2021/08/28 13:20:38;;;;;;;4.35;1.30;;;21.00;99.90;;;;;;5046266;28;20112;-71
2021/08/28 13:23:07;;;;;;;2.67;1.60;;;20.90;99.90;;;;;;5049670;28;20037;-78
2021/08/28 13:25:41;;;;;;;2.15;1.75;;;20.80;99.90;;;;;;5049471;28;20116;-70
2021/08/28 13:28:22;;;;;;;3.28;1.45;;;20.90;99.90;;;;;;5043794;28;20032;-71
2021/08/28 13:30:53;;;;;;;2.90;1.45;;;20.90;99.90;;;;;;5046833;28;20107;-70
2021/08/28 13:33:31;;;;;;;2.47;1.80;;;20.50;99.90;;;;;;5040139;28;20013;-69
2021/08/28 13:36:00;;;;;;;8.85;2.08;;;20.50;99.90;;;;;;5049812;28;20032;-69
2021/08/28 13:38:26;;;;;;;3.25;1.65;;;20.60;99.90;;;;;;5037867;28;20021;-69
2021/08/28 13:40:52;;;;;;;5.22;2.17;;;20.60;99.90;;;;;;5051502;28;20071;-69
2021/08/28 13:43:20;;;;;;;4.20;1.63;;;20.60;99.90;;;;;;5050580;28;20036;-70
2021/08/28 13:45:46;;;;;;;4.82;2.42;;;20.50;99.90;;;;;;5049687;28;20137;-69
2021/08/28 13:48:12;;;;;;;3.45;1.80;;;20.60;99.90;;;;;;5050774;28;20167;-69
2021/08/28 13:50:37;;;;;;;2.83;1.77;;;20.80;99.90;;;;;;5049778;28;20041;-71
2021/08/28 13:53:03;;;;;;;1.77;1.48;;;21.00;99.90;;;;;;5052216;28;20017;-70
2021/08/28 13:55:30;;;;;;;5.28;1.80;;;20.70;99.90;;;;;;5054098;28;20064;-69
2021/08/28 13:57:55;;;;;;;2.00;1.77;;;20.50;99.90;;;;;;5054743;28;20037;-70
2021/08/28 14:00:21;;;;;;;9.15;1.67;;;20.50;99.90;;;;;;5052769;28;20029;-70
2021/08/28 14:02:46;;;;;;;2.50;1.35;;;20.60;99.90;;;;;;5053688;28;20495;-69
2021/08/28 14:05:15;;;;;;;5.00;1.92;;;20.60;99.90;;;;;;5053336;28;20120;-69
2021/08/28 14:07:41;;;;;;;8.63;2.45;;;20.40;99.90;;;;;;5054277;28;20167;-69
2021/08/28 14:10:08;;;;;;;4.55;2.22;;;20.50;99.90;;;;;;5052364;28;20041;-70
2021/08/28 14:12:34;;;;;;;3.08;1.77;;;20.80;99.90;;;;;;5053760;28;20039;-71
2021/08/28 14:14:59;;;;;;;5.50;2.03;;;20.80;99.90;;;;;;5050812;28;20026;-68
2021/08/28 14:17:28;;;;;;;5.95;2.00;;;20.80;99.90;;;;;;5047378;28;20121;-70
2021/08/28 14:19:54;;;;;;;6.05;2.42;;;20.70;99.90;;;;;;5052110;28;20021;-69
2021/08/28 14:22:19;;;;;;;5.65;2.30;;;20.70;99.90;;;;;;5053820;28;20115;-69
2021/08/28 14:24:45;;;;;;;2.67;1.55;;;20.90;99.90;;;;;;5053402;28;20044;-69
2021/08/28 14:27:11;;;;;;;2.15;1.65;;;21.00;99.90;;;;;;5054080;28;20025;-68
2021/08/28 14:29:37;;;;;;;4.60;1.70;;;20.90;99.90;;;;;;5054608;28;20020;-68
2021/08/28 14:32:04;;;;;;;4.85;1.70;;;20.60;99.90;;;;;;5054067;28;20020;-70
2021/08/28 14:34:30;;;;;;;4.10;1.95;;;20.30;99.90;;;;;;5054743;28;20057;-70
2021/08/28 14:36:56;;;;;;;5.57;1.80;;;20.20;99.90;;;;;;5050947;28;20480;-69
2021/08/28 14:39:23;;;;;;;3.80;1.85;;;20.20;99.90;;;;;;5054662;28;20051;-72
2021/08/28 14:41:49;;;;;;;4.10;2.08;;;20.10;99.90;;;;;;5053944;28;20028;-71
2021/08/28 14:44:15;;;;;;;10.32;2.72;;;20.00;99.90;;;;;;5053457;28;20381;-70
2021/08/28 14:46:41;;;;;;;7.10;1.95;;;20.00;99.90;;;;;;5055405;28;20033;-69
2021/08/28 14:49:08;;;;;;;3.95;2.08;;;20.00;99.90;;;;;;5054195;28;20075;-73
2021/08/28 14:51:33;;;;;;;4.20;2.38;;;19.90;99.90;;;;;;5054955;28;20102;-68
2021/08/28 14:53:59;;;;;;;9.13;2.65;;;19.80;99.90;;;;;;5053876;28;20505;-69
2021/08/28 14:56:25;;;;;;;1.88;1.55;;;20.00;99.90;;;;;;5053870;28;20029;-68
2021/08/28 14:58:50;;;;;;;3.92;2.20;;;20.30;99.90;;;;;;5053669;28;20029;-70
2021/08/28 15:01:16;;;;;;;8.75;1.92;;;20.20;99.90;;;;;;5052487;28;20128;-69
2021/08/28 15:03:42;;;;;;;5.28;1.95;;;20.10;99.90;;;;;;5053742;28;20040;-68
2021/08/28 15:06:07;;;;;;;4.63;1.83;;;19.80;99.90;;;;;;5053588;28;20056;-69
2021/08/28 15:08:33;;;;;;;5.63;1.90;;;19.60;99.90;;;;;;5053032;28;20051;-71
2021/08/28 15:10:58;;;;;;;7.07;1.95;;;19.60;99.90;;;;;;5053257;28;20025;-70
2021/08/28 15:13:24;;;;;;;5.65;2.17;;;19.70;99.90;;;;;;5053129;28;20437;-69
2021/08/28 15:15:50;;;;;;;3.95;2.05;;;19.70;99.90;;;;;;5032059;28;20037;-70
2021/08/28 15:18:16;;;;;;;6.13;1.50;;;19.80;99.90;;;;;;5033326;28;20036;-70
2021/08/28 15:20:42;;;;;;;2.42;1.75;;;19.80;99.90;;;;;;5050091;28;20040;-69
2021/08/28 15:23:10;;;;;;;4.63;2.05;;;19.70;99.90;;;;;;5053329;28;20025;-70
2021/08/28 15:25:36;;;;;;;5.32;2.17;;;19.50;99.90;;;;;;5052790;28;20037;-70
2021/08/28 15:28:02;;;;;;;2.75;1.70;;;19.30;99.90;;;;;;5085310;28;20040;-71
2021/08/28 15:30:27;;;;;;;4.07;1.65;;;19.30;99.90;;;;;;5053082;28;20033;-70
2021/08/28 15:32:53;;;;;;;8.57;1.75;;;19.30;99.90;;;;;;5051935;28;20037;-71
2021/08/28 15:35:19;;;;;;;2.60;1.60;;;19.20;99.90;;;;;;5038799;28;20033;-70
2021/08/28 15:37:44;;;;;;;3.22;1.95;;;19.20;99.90;;;;;;5032927;28;20029;-69
2021/08/28 15:40:11;;;;;;;2.38;1.50;;;19.30;99.90;;;;;;5065110;28;20389;-70
2021/08/28 15:42:38;;;;;;;3.35;1.80;;;19.30;99.90;;;;;;5033418;28;20544;-69
2021/08/28 15:45:06;;;;;;;7.05;2.92;;;19.10;99.90;;;;;;5077809;28;20396;-69
2021/08/28 15:47:31;;;;;;;2.60;1.83;;;18.90;99.90;;;;;;5047366;28;20025;-71
2021/08/28 15:49:57;;;;;;;3.72;2.40;;;18.80;99.90;;;;;;5046555;28;20035;-70
2021/08/28 15:52:24;;;;;;;5.32;2.22;;;18.80;99.90;;;;;;5051634;28;20518;-71
2021/08/28 15:54:50;;;;;;;2.17;1.90;;;18.80;99.90;;;;;;5052246;28;20100;-69
2021/08/28 15:57:15;;;;;;;8.75;1.75;;;18.80;99.90;;;;;;5052484;28;20120;-71
2021/08/28 15:59:41;;;;;;;3.80;1.77;;;18.80;99.90;;;;;;5052278;28;20393;-70
2021/08/28 16:02:07;;;;;;;4.68;2.30;;;18.80;99.90;;;;;;5040098;28;20397;-69
2021/08/28 16:04:32;;;;;;;3.97;1.83;;;18.70;99.90;;;;;;5040589;28;20024;-72
2021/08/28 16:06:58;;;;;;;3.63;1.58;;;18.70;99.90;;;;;;5050782;28;20025;-69
2021/08/28 16:09:24;;;;;;;2.53;1.48;;;18.60;99.90;;;;;;5051510;28;20024;-70
2021/08/28 16:11:49;;;;;;;4.97;1.60;;;18.60;99.90;;;;;;5052077;28;20056;-69
2021/08/28 16:14:15;;;;;;;2.47;1.20;;;18.70;99.90;;;;;;5049766;28;20033;-70
2021/08/28 16:16:40;;;;;;;3.60;1.42;;;18.70;99.90;;;;;;5050581;28;20048;-69
2021/08/28 16:19:06;;;;;;;1.80;1.33;;;18.60;99.90;;;;;;5051283;28;20025;-69
2021/08/28 16:21:32;;;;;;;3.20;1.42;;;18.60;99.90;;;;;;5050413;28;20536;-70
2021/08/28 16:23:57;;;;;;;2.70;1.40;;;18.50;99.90;;;;;;5047403;28;20078;-69
2021/08/28 16:26:24;;;;;;;6.63;1.83;;;18.40;99.90;;;;;;5051016;28;20033;-69
2021/08/28 16:28:51;;;;;;;1.67;1.20;;;18.30;99.90;;;;;;5050003;28;20033;-68
2021/08/28 16:31:16;;;;;;;4.40;2.05;;;18.30;99.90;;;;;;5051366;28;20275;-69
2021/08/28 16:33:42;;;;;;;4.60;1.58;;;18.30;99.90;;;;;;5050286;28;20032;-69
2021/08/28 16:36:08;;;;;;;1.48;1.30;;;18.20;99.90;;;;;;5052006;28;20141;-70
2021/08/28 16:38:33;;;;;;;4.00;1.27;;;18.20;99.90;;;;;;5051811;28;20037;-69
2021/08/28 16:40:59;;;;;;;5.40;1.90;;;18.10;99.90;;;;;;5051656;28;20148;-71
2021/08/28 16:43:25;;;;;;;4.90;1.63;;;18.10;99.90;;;;;;5051456;28;20233;-69
2021/08/28 16:45:51;;;;;;;3.63;1.75;;;18.10;99.90;;;;;;5049589;28;20068;-71
2021/08/28 16:48:16;;;;;;;2.92;1.33;;;18.10;99.90;;;;;;5049942;28;20032;-69
2021/08/28 16:50:42;;;;;;;3.10;1.70;;;18.00;99.90;;;;;;5051239;28;20029;-70
2021/08/28 16:53:08;;;;;;;2.60;1.20;;;18.00;99.90;;;;;;5051490;28;20033;-70
2021/08/28 16:55:33;;;;;;;3.85;1.58;;;17.90;99.90;;;;;;5051414;28;20091;-69
2021/08/28 16:57:59;;;;;;;2.47;1.95;;;17.90;99.90;;;;;;5048703;28;20041;-70
2021/08/28 17:00:25;;;;;;;1.50;1.17;;;17.90;99.90;;;;;;5049539;28;20586;-69
2021/08/28 17:02:50;;;;;;;3.83;1.33;;;17.90;99.90;;;;;;5049212;28;20036;-70
2021/08/28 17:05:16;;;;;;;4.38;1.42;;;17.80;99.90;;;;;;5051350;28;20044;-70